EW5545 Weather Reports


Display with metric or nautical units.
time (UTC)temp
F
wind
direction
speed
MPH
gust
MPH
rain 1hr
in
rain 24hr
in
rain mn
in
humidity
%
barometer
mb
20191023103510 73 34 2.0 3.0 0.00 0.01 0.01 58 1020.3
20191023103013 73 32 1.0 5.0 0.00 0.01 0.01 58 1020.4
20191023102509 73 34 3.0 6.0 0.00 0.01 0.01 59 1020.4
20191023102013 73 35 1.0 2.0 0.00 0.01 0.01 61 1020.5
20191023101509 72 42 3.0 6.0 0.00 0.01 0.01 60 1020.5
20191023101015 72 102 0.0 0.0 0.00 0.01 0.01 63 1020.6
20191023100511 72 44 0.0 0.0 0.00 0.01 0.01 63 1020.7
20191023100012 71 27 2.0 3.0 0.00 0.01 0.01 64 1020.7
20191023095508 71 27 1.0 3.0 0.00 0.01 0.01 66 1020.7
20191023095013 70 33 2.0 3.0 0.00 0.01 0.01 67 1020.7
20191023094509 70 28 2.0 3.0 0.00 0.01 0.01 67 1020.7
20191023094018 70 40 1.0 3.0 0.00 0.01 0.01 67 1020.7
20191023093513 69 41 2.0 3.0 0.00 0.01 0.01 69 1020.8
20191023093016 69 85 1.0 2.0 0.00 0.01 0.01 69 1020.9
20191023092512 69 30 0.0 2.0 0.00 0.01 0.01 70 1020.8
20191023092014 69 28 1.0 3.0 0.00 0.01 0.01 71 1020.8
20191023091509 68 82 0.0 2.0 0.00 0.01 0.01 74 1020.8
20191023091015 67 48 0.0 3.0 0.00 0.01 0.01 79 1020.9
20191023090510 66 35 2.0 3.0 0.00 0.01 0.01 81 1020.8
20191023090012 66 270 0.0 1.0 0.00 0.01 0.01 88 1020.9
20191023085508 65 101 0.0 0.0 0.00 0.01 0.01 89 1020.9
20191023085013 64 34 1.0 3.0 0.00 0.01 0.01 89 1021.0
20191023084509 63 35 0.0 3.0 0.00 0.01 0.01 90 1020.9
20191023084013 63 44 0.0 2.0 0.00 0.01 0.01 90 1020.9
20191023083510 63 59 1.0 2.0 0.00 0.01 0.01 90 1021.0
20191023083016 63 312 0.0 1.0 0.00 0.01 0.01 91 1021.0
20191023082509 63 65 0.0 1.0 0.00 0.01 0.01 91 1021.0
20191023082014 62 65 0.0 2.0 0.00 0.01 0.01 91 1021.0
20191023081509 62 124 1.0 3.0 0.00 0.01 0.01 91 1021.1
20191023081016 62 125 0.0 1.0 0.00 0.01 0.01 91 1021.1
20191023080510 61 49 0.0 1.0 0.00 0.01 0.01 91 1021.1
20191023080012 61 60 0.0 2.0 0.00 0.01 0.01 91 1021.1
20191023075509 60 91 0.0 2.0 0.00 0.01 0.01 91 1021.1
20191023075013 60 125 0.0 1.0 0.00 0.01 0.01 92 1021.2
20191023074509 60 141 1.0 2.0 0.00 0.01 0.01 91 1021.2
20191023074014 60 84 0.0 1.0 0.00 0.01 0.01 91 1021.2
20191023073510 59 89 0.0 1.0 0.00 0.01 0.01 92 1021.2
20191023073013 59 140 0.0 1.0 0.00 0.01 0.01 92 1021.3
20191023072509 59 200 0.0 0.0 0.00 0.01 0.01 92 1021.3
20191023072013 59 200 0.0 0.0 0.00 0.01 0.01 92 1021.3
20191023071509 59 128 0.0 0.0 0.00 0.01 0.01 92 1021.2
20191023071014 59 153 0.0 0.0 0.00 0.01 0.01 92 1021.2
20191023070511 58 37 0.0 0.0 0.00 0.01 0.01 92 1021.3
20191023070012 58 230 0.0 0.0 0.00 0.01 0.01 92 1021.3
20191023065508 58 223 0.0 0.0 0.00 0.01 0.01 92 1021.3
20191023065013 58 223 0.0 0.0 0.00 0.01 0.01 92 1021.2
20191023064509 58 228 0.0 0.0 0.00 0.01 0.01 92 1021.3
20191023064021 58 217 0.0 0.0 0.00 0.01 0.01 92 1021.3
20191023063512 57 215 0.0 0.0 0.00 0.01 0.01 92 1021.2
20191023063015 57 215 0.0 0.0 0.00 0.01 0.01 92 1021.2
20191023062512 57 214 0.0 0.0 0.00 0.01 0.01 92 1021.3
20191023062014 57 210 0.0 0.0 0.00 0.01 0.01 92 1021.3
20191023061510 56 210 0.0 0.0 0.00 0.01 0.01 92 1021.2
20191023061018 56 210 0.0 0.0 0.00 0.02 0.01 92 1021.2
20191023060510 56 210 0.0 0.0 0.00 0.02 0.01 92 1021.2
20191023060010 56 209 0.0 0.0 0.00 0.02 0.01 92 1021.2
20191023055510 56 209 0.0 0.0 0.00 0.02 0.01 92 1021.1
20191023055014 55 215 0.0 0.0 0.00 0.02 0.01 92 1021.1
20191023054515 55 222 0.0 0.0 0.00 0.02 0.01 92 1020.9
20191023054013 55 222 0.0 0.0 0.00 0.02 0.01 92 1020.9
20191023053509 55 222 0.0 0.0 0.00 0.02 0.01 92 1020.9
20191023053013 55 221 0.0 0.0 0.00 0.02 0.01 92 1020.8
20191023052509 55 222 0.0 0.0 0.00 0.02 0.01 92 1020.7
20191023052013 55 219 0.0 0.0 0.00 0.02 0.01 92 1020.7
20191023051509 55 205 0.0 0.0 0.00 0.02 0.01 92 1020.6
20191023051016 55 223 0.0 0.0 0.00 0.02 0.01 92 1020.6
20191023050510 55 224 0.0 0.0 0.00 0.02 0.01 92 1020.7
20191023050010 55 226 0.0 0.0 0.00 0.02 0.01 92 1020.6
20191023045509 55 227 0.0 0.0 0.00 0.02 0.01 92 1020.6
20191023045014 55 224 0.0 0.0 0.00 0.02 0.01 92 1020.6
20191023044509 55 222 0.0 1.0 0.00 0.02 0.01 92 1020.6
20191023044013 55 229 0.0 0.0 0.00 0.02 0.01 92 1020.6
20191023043509 55 215 0.0 0.0 0.00 0.02 0.01 92 1020.5
20191023043015 55 214 0.0 0.0 0.00 0.02 0.01 92 1020.5
20191023042509 55 214 0.0 0.0 0.00 0.02 0.01 91 1020.5
20191023042013 54 214 0.0 0.0 0.00 0.02 0.01 91 1020.5
20191023041509 54 214 0.0 0.0 0.00 0.02 0.01 91 1020.5
20191023041015 54 214 0.0 0.0 0.00 0.02 0.01 91 1020.5
20191023040512 54 214 0.0 0.0 0.00 0.02 0.01 91 1020.5
20191023040010 54 214 0.0 0.0 0.00 0.02 0.01 91 1020.5
20191023035508 54 214 0.0 0.0 0.00 0.02 0.01 91 1020.5
20191023035012 54 215 0.0 0.0 0.00 0.02 0.01 91 1020.5
20191023034554 54 215 0.0 0.0 0.01 0.02 0.01 91 1020.6
20191023034250 54 215 0.0 0.0 0.01 0.02 0.01 91 1020.6
20191023033014 54 229 0.0 1.0 0.01 0.02 0.01 91 1020.6
20191023032512 53 224 1.0 1.0 0.01 0.02 0.01 91 1020.6
20191023032013 53 228 0.0 0.0 0.01 0.02 0.01 91 1020.6
20191023031509 53 223 0.0 0.0 0.01 0.02 0.01 91 1020.6
20191023031013 53 225 0.0 0.0 0.01 0.02 0.01 91 1020.6
20191023030510 52 225 0.0 0.0 0.01 0.02 0.01 91 1020.6
20191023030011 52 225 0.0 0.0 0.01 0.02 0.01 91 1020.5
20191023025508 52 228 0.0 0.0 0.01 0.02 0.01 91 1020.6
20191023025013 52 232 0.0 0.0 0.01 0.02 0.01 90 1020.6
20191023024509 52 232 0.0 0.0 0.01 0.02 0.01 90 1020.6
20191023024012 52 232 0.0 0.0 0.00 0.01 0.00 90 1020.6
20191023023509 52 232 0.0 0.0 0.00 0.01 0.00 90 1020.7
20191023023012 52 233 0.0 1.0 0.00 0.01 0.00 90 1020.6
20191023022509 52 230 0.0 2.0 0.00 0.01 0.00 88 1020.6
20191023022012 52 237 0.0 2.0 0.00 0.01 0.00 89 1020.6
20191023021509 53 232 1.0 2.0 0.00 0.01 0.00 87 1020.6
20191023021013 54 226 0.0 0.0 0.00 0.01 0.00 89 1020.5
20191023020510 54 226 0.0 0.0 0.00 0.01 0.00 89 1020.5
20191023020011 54 226 0.0 0.0 0.00 0.01 0.00 89 1020.6
20191023015509 54 226 0.0 0.0 0.00 0.01 0.00 88 1020.6
20191023015012 54 226 0.0 0.0 0.00 0.01 0.00 89 1020.6
20191023014509 53 226 0.0 0.0 0.00 0.01 0.00 88 1020.5
20191023014012 53 226 0.0 0.0 0.00 0.01 0.00 87 1020.6
20191023013510 53 226 0.0 0.0 0.00 0.01 0.00 87 1020.6
20191023013013 53 226 0.0 0.0 0.00 0.01 0.00 86 1020.6
20191023012508 53 226 0.0 0.0 0.00 0.01 0.00 87 1020.6
20191023012012 52 226 0.0 0.0 0.00 0.01 0.00 86 1020.6
20191023011508 53 226 0.0 0.0 0.00 0.01 0.00 85 1020.6
20191023011014 53 226 0.0 0.0 0.00 0.01 0.00 83 1020.7
20191023010510 54 226 0.0 0.0 0.00 0.01 0.00 85 1020.7
20191023010011 54 226 0.0 0.0 0.00 0.01 0.00 85 1020.8
20191023005508 53 226 0.0 0.0 0.00 0.01 0.00 84 1020.8
20191023005011 54 226 0.0 0.0 0.00 0.01 0.00 83 1020.8
20191023004509 54 227 0.0 0.0 0.00 0.01 0.00 81 1020.7
20191023004012 55 227 0.0 0.0 0.00 0.01 0.00 81 1020.8
20191023003510 55 227 0.0 0.0 0.00 0.01 0.00 82 1020.7
20191023003012 55 227 0.0 0.0 0.00 0.01 0.00 80 1020.7
20191023002509 55 227 0.0 0.0 0.00 0.01 0.00 82 1020.7
20191023002012 54 226 0.0 0.0 0.00 0.01 0.00 83 1020.8
20191023001510 54 226 0.0 0.0 0.00 0.01 0.00 83 1020.7
20191023001014 54 226 0.0 0.0 0.00 0.01 0.00 83 1020.7
20191023000511 53 226 0.0 0.0 0.00 0.01 0.00 83 1020.7
20191023000012 54 226 0.0 0.0 0.00 0.01 0.00 82 1020.7
20191022235509 54 226 0.0 0.0 0.00 0.01 0.00 82 1020.7
20191022235012 54 226 0.0 0.0 0.00 0.01 0.00 82 1020.6
20191022234509 54 226 0.0 0.0 0.00 0.01 0.00 82 1020.6
20191022234012 54 227 0.0 0.0 0.00 0.01 0.00 82 1020.6
20191022233510 55 225 0.0 0.0 0.00 0.01 0.00 82 1020.6
20191022233013 55 226 0.0 0.0 0.00 0.01 0.00 82 1020.6
20191022232508 54 226 0.0 0.0 0.00 0.01 0.00 83 1020.6
20191022232012 54 226 0.0 0.0 0.00 0.01 0.00 82 1020.6
20191022231509 54 226 0.0 0.0 0.00 0.01 0.00 82 1020.7
20191022231013 54 226 0.0 0.0 0.00 0.01 0.00 82 1020.7
20191022230511 55 226 0.0 0.0 0.00 0.01 0.00 81 1020.7
20191022230011 55 231 0.0 0.0 0.00 0.01 0.00 82 1020.7
20191022225509 55 231 0.0 0.0 0.00 0.01 0.00 81 1020.7
20191022225013 56 234 0.0 0.0 0.00 0.01 0.00 78 1020.8
20191022224509 56 238 0.0 0.0 0.00 0.01 0.00 80 1020.7
20191022224013 56 238 0.0 0.0 0.00 0.01 0.00 81 1020.7
20191022223509 55 237 0.0 0.0 0.00 0.01 0.00 80 1020.8
20191022223013 55 237 0.0 0.0 0.00 0.01 0.00 81 1020.8
20191022222509 55 237 0.0 0.0 0.00 0.01 0.00 80 1020.8
20191022222012 56 239 0.0 0.0 0.00 0.01 0.00 80 1020.8
20191022221509 56 233 0.0 0.0 0.00 0.01 0.00 82 1020.8
20191022221013 56 230 0.0 0.0 0.00 0.01 0.00 78 1020.8
20191022220509 57 233 0.0 0.0 0.00 0.01 0.00 78 1020.8
20191022220012 57 252 0.0 0.0 0.00 0.01 0.00 81 1020.8
20191022215512 56 245 0.0 0.0 0.00 0.01 0.01 82 1020.8
20191022215012 56 239 0.0 0.0 0.00 0.01 0.01 80 1020.8
20191022214509 56 234 0.0 0.0 0.00 0.01 0.01 82 1020.8
20191022214021 56 234 0.0 0.0 0.00 0.01 0.01 81 1020.8
20191022213513 56 234 0.0 0.0 0.00 0.01 0.01 81 1020.8
20191022213014 56 234 0.0 0.0 0.00 0.01 0.01 82 1020.9
20191022212512 56 234 0.0 0.0 0.00 0.01 0.01 83 1021.0
20191022212012 55 234 0.0 0.0 0.00 0.01 0.01 83 1021.0
20191022211509 55 234 0.0 0.0 0.00 0.01 0.01 84 1021.0
20191022211015 55 234 0.0 0.0 0.00 0.01 0.01 83 1021.0
20191022210509 56 236 0.0 0.0 0.00 0.01 0.01 83 1021.0
20191022210010 56 236 0.0 0.0 0.00 0.01 0.01 83 1021.0
20191022205509 56 236 0.0 0.0 0.00 0.01 0.01 83 1021.0
20191022205012 56 236 0.0 0.0 0.00 0.01 0.01 83 1021.0
20191022204509 56 237 0.0 0.0 0.00 0.01 0.01 82 1021.1
20191022204011 57 237 0.0 0.0 0.00 0.01 0.01 81 1021.1
20191022203509 57 238 0.0 0.0 0.00 0.01 0.01 82 1021.1
20191022203013 57 238 0.0 0.0 0.00 0.01 0.01 82 1021.1
20191022202508 57 238 0.0 0.0 0.00 0.01 0.01 82 1021.1
20191022202013 57 235 0.0 0.0 0.00 0.01 0.01 82 1021.1
20191022201508 57 237 0.0 0.0 0.00 0.01 0.01 83 1021.1
20191022201014 57 236 0.0 0.0 0.00 0.01 0.01 83 1021.1
20191022200509 57 231 0.0 0.0 0.00 0.01 0.01 84 1021.0
20191022200011 57 231 0.0 0.0 0.00 0.01 0.01 85 1020.9
20191022195508 57 231 0.0 0.0 0.00 0.01 0.01 85 1021.0
20191022195011 57 231 0.0 0.0 0.00 0.01 0.01 86 1021.0
20191022194508 57 234 0.0 0.0 0.00 0.01 0.01 86 1020.9
20191022194011 57 234 0.0 0.0 0.00 0.01 0.01 86 1020.9
20191022193509 58 234 0.0 0.0 0.00 0.01 0.01 86 1020.9
20191022193011 58 233 0.0 0.0 0.00 0.01 0.01 88 1020.9
20191022192509 58 231 0.0 0.0 0.00 0.01 0.01 89 1020.9
20191022192010 57 231 0.0 0.0 0.00 0.01 0.01 89 1020.9
20191022191508 57 231 0.0 0.0 0.00 0.01 0.01 89 1020.9
20191022191013 58 230 0.0 0.0 0.00 0.01 0.01 89 1020.9
20191022190510 58 234 0.0 0.0 0.00 0.01 0.01 88 1020.9
20191022190011 59 234 0.0 0.0 0.00 0.01 0.01 88 1020.9
20191022185508 59 234 0.0 0.0 0.00 0.01 0.01 89 1020.9
20191022185012 59 234 0.0 0.0 0.00 0.01 0.01 89 1020.9
20191022184538 59 234 0.0 0.0 0.00 0.01 0.01 89 1020.9
20191022184020 59 234 0.0 0.0 0.00 0.01 0.01 88 1020.9
20191022183511 59 236 0.0 0.0 0.00 0.01 0.01 87 1020.8
20191022183013 60 236 0.0 0.0 0.00 0.01 0.01 87 1020.9
20191022182512 60 236 0.0 0.0 0.00 0.01 0.01 87 1020.9
20191022182012 61 252 0.0 0.0 0.00 0.01 0.01 87 1020.9
20191022181508 61 252 0.0 0.0 0.00 0.01 0.01 87 1020.9
20191022181014 61 258 0.0 0.0 0.00 0.01 0.01 88 1020.9
20191022180510 61 259 0.0 1.0 0.00 0.01 0.01 88 1020.9
20191022180011 61 259 0.0 1.0 0.00 0.01 0.01 88 1020.8
20191022175509 61 259 0.0 1.0 0.00 0.01 0.01 88 1020.8
20191022175010 61 238 0.0 2.0 0.00 0.01 0.01 87 1020.9
20191022174509 61 231 0.0 1.0 0.00 0.01 0.01 87 1020.9
20191022174011 61 226 0.0 0.0 0.00 0.01 0.01 86 1020.9
20191022173510 61 226 0.0 0.0 0.00 0.01 0.01 86 1020.9
20191022173011 62 226 0.0 0.0 0.00 0.01 0.01 86 1020.8
20191022172509 63 38 0.0 0.0 0.00 0.01 0.01 86 1020.9
20191022172012 63 35 0.0 0.0 0.00 0.01 0.01 86 1020.9
20191022171508 64 35 0.0 0.0 0.00 0.01 0.01 85 1020.9
20191022171014 64 35 0.0 0.0 0.00 0.01 0.01 84 1021.0
20191022170509 65 35 0.0 0.0 0.00 0.01 0.01 85 1021.0
20191022170010 65 37 0.0 1.0 0.00 0.01 0.01 85 1021.0
20191022165507 65 37 0.0 0.0 0.00 0.01 0.01 85 1021.0
20191022165012 65 37 0.0 0.0 0.00 0.01 0.01 84 1021.0
20191022164508 65 37 0.0 0.0 0.00 0.01 0.01 84 1021.0
20191022164013 66 37 0.0 0.0 0.00 0.01 0.01 84 1021.0
20191022163509 66 37 0.0 0.0 0.00 0.01 0.01 84 1021.0
20191022163011 66 41 0.0 0.0 0.00 0.01 0.01 84 1021.0
20191022162508 66 32 0.0 0.0 0.00 0.01 0.01 83 1021.0
20191022162013 66 27 0.0 1.0 0.00 0.01 0.01 83 1021.0
20191022161509 66 28 1.0 3.0 0.00 0.01 0.01 83 1021.1
20191022161012 67 34 2.0 5.0 0.00 0.01 0.01 82 1021.1
20191022160509 67 29 1.0 5.0 0.00 0.01 0.01 81 1021.1
20191022160011 67 34 2.0 3.0 0.00 0.01 0.01 81 1021.1
20191022155508 67 32 1.0 6.0 0.00 0.01 0.01 80 1021.1
20191022155012 67 35 1.0 6.0 0.00 0.01 0.01 80 1021.0
20191022154513 68 38 2.0 5.0 0.00 0.01 0.01 79 1021.0
20191022154019 68 30 3.0 6.0 0.00 0.01 0.01 78 1021.0
20191022153515 69 34 2.0 3.0 0.00 0.01 0.01 77 1020.9
20191022153010 69 32 2.0 3.0 0.00 0.01 0.01 76 1020.9
20191022152511 69 35 2.0 5.0 0.00 0.01 0.01 76 1020.9
20191022152011 69 30 2.0 3.0 0.00 0.01 0.01 76 1020.9
20191022151508 69 36 3.0 5.0 0.00 0.01 0.01 76 1020.8
20191022151012 69 31 2.0 5.0 0.00 0.01 0.01 76 1020.8
20191022150509 69 34 2.0 7.0 0.00 0.01 0.01 75 1020.8
20191022150009 70 37 5.0 8.0 0.00 0.01 0.01 74 1020.8
20191022145508 70 32 4.0 7.0 0.00 0.01 0.01 74 1020.8
20191022145012 70 29 4.0 7.0 0.00 0.01 0.01 72 1020.8
20191022144508 71 35 4.0 8.0 0.00 0.01 0.01 72 1020.8
20191022144012 71 32 2.0 5.0 0.00 0.01 0.01 71 1020.8
20191022143509 71 34 2.0 5.0 0.00 0.01 0.01 71 1020.8
20191022143012 71 32 2.0 6.0 0.00 0.01 0.01 71 1020.7
20191022142508 71 18 2.0 7.0 0.00 0.01 0.01 71 1020.8
20191022142010 71 30 2.0 7.0 0.00 0.01 0.01 70 1020.8
20191022141508 72 41 3.0 8.0 0.00 0.01 0.01 69 1020.7
20191022141013 72 23 2.0 6.0 0.00 0.01 0.01 69 1020.7
20191022140510 72 24 5.0 8.0 0.00 0.01 0.01 68 1020.7
20191022140011 72 31 5.0 12.0 0.00 0.01 0.01 68 1020.7
20191022135508 72 36 3.0 7.0 0.00 0.01 0.01 67 1020.7
20191022135011 72 34 5.0 10.0 0.00 0.01 0.01 66 1020.8
20191022134507 73 37 4.0 8.0 0.00 0.01 0.01 65 1020.7
20191022134011 73 30 4.0 8.0 0.00 0.01 0.01 64 1020.7
20191022133508 73 32 5.0 9.0 0.00 0.01 0.01 64 1020.7
20191022133012 73 35 4.0 7.0 0.00 0.01 0.01 64 1020.8
20191022132508 73 32 3.0 10.0 0.00 0.01 0.01 64 1020.9
20191022132011 73 30 5.0 8.0 0.00 0.01 0.01 64 1020.9
20191022131508 74 32 3.0 8.0 0.00 0.01 0.01 64 1020.9
20191022131011 74 31 3.0 12.0 0.00 0.01 0.01 64 1021.0
20191022130510 74 31 6.0 9.0 0.00 0.01 0.01 63 1021.0
20191022130008 74 28 5.0 8.0 0.00 0.01 0.01 63 1021.0
20191022125509 74 32 4.0 8.0 0.00 0.01 0.01 62 1021.0
20191022125010 74 25 3.0 8.0 0.00 0.01 0.01 61 1021.0
20191022124509 75 33 3.0 8.0 0.00 0.01 0.01 61 1021.0
20191022124018 75 23 1.0 6.0 0.00 0.01 0.01 58 1021.0
20191022123512 75 36 3.0 6.0 0.00 0.01 0.01 58 1021.0
20191022123012 75 36 3.0 7.0 0.00 0.01 0.01 58 1021.1
20191022122512 75 28 2.0 5.0 0.00 0.01 0.01 57 1021.1
20191022122013 75 8 1.0 6.0 0.00 0.01 0.01 59 1021.1
20191022121509 75 33 4.0 8.0 0.00 0.01 0.01 58 1021.1
20191022121012 75 15 1.0 3.0 0.00 0.01 0.01 60 1021.1
20191022120509 74 27 3.0 6.0 0.00 0.01 0.01 60 1021.2
20191022120011 75 26 2.0 6.0 0.00 0.01 0.01 59 1021.2
20191022115508 74 115 1.0 8.0 0.00 0.01 0.01 56 1021.3
20191022115010 74 33 3.0 8.0 0.00 0.01 0.01 57 1021.3
20191022114507 73 32 3.0 8.0 0.00 0.01 0.01 58 1021.4
20191022114010 74 35 2.0 5.0 0.00 0.01 0.01 60 1021.4
20191022113508 74 32 2.0 5.0 0.00 0.01 0.01 60 1021.5
20191022113010 73 42 1.0 3.0 0.00 0.01 0.01 61 1021.5
20191022112507 73 27 2.0 5.0 0.00 0.01 0.01 62 1021.6
20191022112010 73 33 2.0 8.0 0.00 0.01 0.01 60 1021.7
20191022111507 73 18 2.0 5.0 0.00 0.01 0.01 61 1021.8
20191022111010 73 7 3.0 5.0 0.00 0.01 0.01 64 1021.8
20191022110508 72 34 3.0 7.0 0.00 0.01 0.01 65 1021.9
20191022110010 72 31 5.0 7.0 0.00 0.01 0.01 65 1021.9
20191022105508 72 34 4.0 7.0 0.00 0.01 0.01 64 1021.9
20191022105009 72 40 2.0 3.0 0.00 0.01 0.01 67 1022.0
20191022104510 72 24 1.0 3.0 0.00 0.01 0.01 68 1022.1
20191022104009 72 23 1.0 5.0 0.00 0.01 0.01 67 1022.1